createdAt,value
2022-09-26T00:04:08.137Z,36.03
2022-09-26T00:09:10.123Z,37.00
2022-09-26T00:14:15.964Z,34.92
2022-09-26T00:19:17.949Z,34.90
2022-09-26T00:24:20.199Z,40.08
2022-09-26T00:29:22.183Z,42.25
2022-09-26T00:34:24.378Z,41.92
2022-09-26T00:39:26.454Z,37.55
2022-09-26T00:44:45.956Z,27.70
2022-09-26T00:49:51.013Z,28.25
2022-09-26T00:54:56.642Z,32.03
2022-09-26T01:00:02.744Z,38.42
2022-09-26T01:05:07.117Z,33.00
2022-09-26T01:10:10.360Z,35.78
2022-09-26T01:15:14.286Z,35.60
2022-09-26T01:20:40.681Z,37.97
2022-09-26T01:25:42.570Z,39.22
2022-09-26T01:30:51.956Z,37.65
2022-09-26T01:35:57.195Z,40.40
2022-09-26T01:41:11.584Z,27.23
2022-09-26T01:51:35.748Z,29.03
2022-09-26T01:56:41.532Z,28.05
2022-09-26T02:01:46.361Z,28.73
2022-09-26T02:06:58.084Z,30.27
2022-09-26T02:12:05.649Z,23.53
2022-09-26T02:17:15.251Z,32.72
2022-09-26T02:22:18.197Z,32.22
2022-09-26T02:27:20.377Z,32.95
2022-09-26T02:32:28.030Z,30.00
2022-09-26T02:37:31.015Z,32.75
2022-09-26T02:42:53.515Z,27.42
2022-09-26T02:48:30.850Z,39.30
2022-09-26T02:53:53.731Z,30.25
2022-09-26T02:59:16.865Z,40.08
2022-09-26T03:04:29.931Z,28.25
2022-09-26T03:09:34.374Z,38.33
2022-09-26T03:14:40.110Z,39.70
2022-09-26T03:19:49.649Z,47.72
2022-09-26T03:24:52.821Z,35.90
2022-09-26T03:29:55.072Z,31.02
2022-09-26T03:34:59.510Z,49.80
2022-09-26T03:40:03.952Z,25.27
2022-09-26T03:50:37.813Z,32.88
2022-09-26T03:55:39.828Z,23.40
2022-09-26T04:00:43.061Z,27.50
2022-09-26T04:05:45.132Z,44.00
2022-09-26T04:10:47.164Z,57.20
2022-09-26T04:15:56.197Z,70.45
2022-09-26T04:21:18.365Z,80.15
2022-09-26T04:26:23.720Z,121.18
2022-09-26T04:31:27.979Z,109.50
2022-09-26T04:36:37.839Z,116.70
2022-09-26T04:41:39.945Z,94.53
2022-09-26T04:46:42.036Z,154.10
2022-09-26T04:51:45.684Z,90.50
2022-09-26T04:56:47.669Z,66.22
2022-09-26T05:01:49.977Z,87.07
2022-09-26T05:06:59.336Z,100.00
2022-09-26T05:12:07.404Z,100.95
2022-09-26T05:22:14.935Z,77.35
2022-09-26T05:27:19.198Z,44.42
2022-09-26T05:32:21.233Z,49.65
2022-09-26T05:37:25.948Z,32.22
2022-09-26T05:42:28.637Z,34.43
2022-09-26T05:47:34.516Z,33.97
2022-09-26T05:52:38.022Z,37.63
2022-09-26T06:02:42.227Z,36.70
2022-09-26T06:08:04.020Z,47.33
2022-09-26T06:13:28.869Z,45.42
2022-09-26T06:18:39.206Z,47.45
2022-09-26T06:23:41.389Z,55.80
2022-09-26T06:28:44.684Z,48.22
2022-09-26T06:33:55.340Z,48.58
2022-09-26T06:39:08.582Z,55.63
2022-09-26T06:44:11.692Z,54.25
2022-09-26T06:49:25.500Z,34.13
2022-09-26T06:54:36.917Z,27.90
2022-09-26T06:59:39.170Z,40.63
2022-09-26T07:04:53.031Z,35.10
2022-09-26T07:10:04.523Z,37.97
2022-09-26T07:15:15.518Z,43.97
2022-09-26T07:20:20.120Z,38.65
2022-09-26T07:25:45.656Z,42.25
2022-09-26T07:30:47.911Z,40.38
2022-09-26T07:36:09.752Z,46.00
2022-09-26T07:41:12.355Z,50.15
2022-09-26T07:46:33.801Z,44.95
2022-09-26T07:51:36.952Z,43.25
2022-09-26T07:56:41.950Z,43.25
2022-09-26T08:01:58.182Z,40.70
2022-09-26T08:12:18.457Z,41.92
2022-09-26T08:17:39.232Z,42.85
2022-09-26T08:22:41.342Z,43.47
2022-09-26T08:27:48.470Z,44.70
2022-09-26T08:32:54.809Z,36.38
2022-09-26T08:38:01.790Z,42.28
2022-09-26T08:44:03.676Z,51.65
2022-09-26T08:50:01.022Z,47.08
2022-09-26T08:55:14.573Z,58.65
2022-09-26T09:00:31.780Z,64.70
2022-09-26T09:05:49.832Z,68.43
2022-09-26T09:11:02.455Z,52.63
2022-09-26T09:16:06.463Z,56.90
2022-09-26T09:21:44.908Z,57.75
2022-09-26T09:32:57.101Z,45.67
2022-09-26T09:38:31.854Z,48.15
2022-09-26T09:43:54.591Z,43.30
2022-09-26T09:49:09.391Z,38.92
2022-09-26T09:54:22.213Z,33.60
2022-09-26T09:59:43.189Z,34.78
2022-09-26T10:05:17.726Z,35.85
2022-09-26T10:10:24.884Z,33.05
2022-09-26T10:16:01.308Z,27.73
2022-09-26T10:21:39.467Z,29.10
2022-09-26T10:26:44.514Z,28.63
2022-09-26T10:31:56.266Z,25.88
2022-09-26T10:37:21.337Z,28.35
2022-09-26T10:42:29.892Z,15.70
2022-09-26T10:47:35.194Z,14.13
2022-09-26T10:53:10.050Z,14.10
2022-09-26T10:58:24.180Z,19.30
2022-09-26T11:03:44.844Z,18.13
2022-09-26T11:09:02.532Z,22.63
2022-09-26T11:14:30.540Z,16.38
2022-09-26T11:19:44.773Z,16.25
2022-09-26T11:24:59.378Z,15.15
2022-09-26T11:30:09.307Z,15.18
2022-09-26T11:35:24.449Z,15.30
2022-09-26T11:40:44.998Z,14.93
2022-09-26T11:46:25.353Z,13.52
2022-09-26T11:52:04.664Z,12.25
2022-09-26T11:57:31.986Z,16.45
2022-09-26T12:03:05.300Z,12.65
2022-09-26T12:08:30.726Z,13.48
2022-09-26T12:13:54.317Z,11.70
2022-09-26T12:19:17.903Z,17.50
2022-09-26T12:24:33.612Z,13.38
2022-09-26T12:30:07.749Z,12.50
2022-09-26T12:35:33.390Z,16.88
2022-09-26T12:41:05.632Z,11.57
2022-09-26T12:46:27.511Z,14.07
2022-09-26T12:52:06.029Z,9.88
2022-09-26T12:57:38.783Z,9.38
2022-09-26T13:03:16.663Z,8.30
2022-09-26T13:08:25.022Z,10.55
2022-09-26T13:13:46.457Z,13.30
2022-09-26T13:18:51.724Z,9.68
2022-09-26T13:23:59.463Z,9.93
2022-09-26T13:29:24.127Z,9.10
2022-09-26T13:34:29.191Z,12.70
2022-09-26T13:39:40.841Z,13.88
2022-09-26T13:45:06.108Z,13.30
2022-09-26T13:50:30.189Z,9.80
2022-09-26T13:55:32.752Z,9.02
2022-09-26T14:00:40.576Z,12.03
2022-09-26T14:05:43.106Z,16.80
2022-09-26T14:10:53.480Z,13.25
2022-09-26T14:15:59.668Z,9.30
2022-09-26T14:21:12.599Z,14.00
2022-09-26T14:26:19.042Z,11.52
2022-09-26T14:31:27.396Z,11.23
2022-09-26T14:36:35.019Z,19.60
2022-09-26T14:41:41.317Z,10.85
2022-09-26T14:46:43.924Z,7.82
2022-09-26T14:51:49.974Z,10.07
2022-09-26T14:57:00.989Z,9.55
2022-09-26T15:02:20.238Z,18.05
2022-09-26T15:07:24.843Z,20.85
2022-09-26T15:12:54.106Z,16.08
2022-09-26T15:18:06.037Z,16.98
2022-09-26T15:23:23.525Z,20.70
2022-09-26T15:28:25.709Z,39.88
2022-09-26T15:33:27.914Z,39.30
2022-09-26T15:38:29.886Z,27.83
2022-09-26T15:43:35.507Z,26.13
2022-09-26T15:48:43.024Z,17.88
2022-09-26T15:54:09.832Z,13.63
2022-09-26T15:59:23.539Z,21.85
2022-09-26T16:04:27.276Z,33.92
2022-09-26T16:09:43.304Z,28.63
2022-09-26T16:14:46.748Z,32.40
2022-09-26T16:25:02.247Z,30.45
2022-09-26T16:30:25.663Z,32.13
2022-09-26T16:35:29.775Z,39.72
2022-09-26T16:40:36.432Z,35.78
2022-09-26T16:45:55.374Z,22.77
2022-09-26T16:51:14.641Z,36.50
2022-09-26T16:56:19.562Z,35.92
2022-09-26T17:01:41.002Z,49.17
2022-09-26T17:06:43.307Z,46.58
2022-09-26T17:11:49.699Z,49.10
2022-09-26T17:16:55.482Z,56.78
2022-09-26T17:21:59.449Z,46.28
2022-09-26T17:27:04.726Z,45.05
2022-09-26T17:32:17.663Z,56.00
2022-09-26T17:37:22.278Z,79.10
2022-09-26T17:42:25.421Z,66.63
2022-09-26T17:47:27.610Z,46.63
2022-09-26T17:52:34.870Z,35.95
2022-09-26T17:57:41.605Z,38.97
2022-09-26T18:02:47.549Z,40.17
2022-09-26T18:07:53.612Z,47.65
2022-09-26T18:12:59.458Z,37.00
2022-09-26T18:18:02.168Z,33.97
2022-09-26T18:23:07.572Z,31.97
2022-09-26T18:28:14.156Z,25.27
2022-09-26T18:33:19.237Z,20.40
2022-09-26T18:38:22.386Z,15.88
2022-09-26T18:43:29.507Z,21.17
2022-09-26T18:48:33.914Z,36.85
2022-09-26T18:53:37.629Z,17.10
2022-09-26T19:03:46.851Z,27.27
2022-09-26T19:08:51.901Z,27.42
2022-09-26T19:13:56.562Z,21.35
2022-09-26T19:19:03.273Z,19.05
2022-09-26T19:24:40.039Z,23.67
2022-09-26T19:29:47.635Z,18.55
2022-09-26T19:34:54.119Z,20.88
2022-09-26T19:39:57.797Z,18.55
2022-09-26T19:44:59.897Z,18.20
2022-09-26T19:50:02.668Z,16.55
2022-09-26T19:55:16.086Z,14.93
2022-09-26T20:00:19.472Z,18.23
2022-09-26T20:05:24.075Z,16.73
2022-09-26T20:10:26.304Z,19.92
2022-09-26T20:15:28.401Z,27.92
2022-09-26T20:20:32.198Z,26.08
2022-09-26T20:25:36.002Z,21.10
2022-09-26T20:30:54.387Z,16.63
2022-09-26T20:36:03.669Z,16.85
2022-09-26T20:41:13.195Z,14.80
2022-09-26T20:46:15.941Z,17.80
2022-09-26T20:51:30.654Z,24.60
2022-09-26T20:56:38.993Z,25.13
2022-09-26T21:01:48.023Z,18.17
2022-09-26T21:06:49.989Z,13.13
2022-09-26T21:11:52.020Z,14.98
2022-09-26T21:16:54.609Z,15.70
2022-09-26T21:21:56.788Z,13.13
2022-09-26T21:27:12.224Z,13.88
2022-09-26T21:32:17.504Z,18.23
2022-09-26T21:37:19.434Z,17.80
2022-09-26T21:42:21.733Z,19.98
2022-09-26T21:47:24.603Z,22.08
2022-09-26T21:52:49.295Z,20.20
2022-09-26T21:57:54.249Z,18.58
2022-09-26T22:02:59.242Z,20.75
2022-09-26T22:08:01.845Z,27.35
2022-09-26T22:13:04.377Z,35.13
2022-09-26T22:18:06.278Z,29.05
2022-09-26T22:23:08.152Z,25.90
2022-09-26T22:28:10.053Z,30.55
2022-09-26T22:33:11.956Z,30.23
2022-09-26T22:38:14.709Z,30.70
2022-09-26T22:43:16.638Z,30.40
2022-09-26T22:48:18.617Z,30.23
2022-09-26T22:53:20.529Z,30.10
2022-09-26T22:58:23.746Z,32.55
2022-09-26T23:03:25.709Z,34.67
2022-09-26T23:08:28.253Z,36.42
2022-09-26T23:13:32.858Z,37.60
2022-09-26T23:18:35.547Z,38.28
2022-09-26T23:23:39.064Z,38.30
2022-09-26T23:28:40.953Z,36.75
2022-09-26T23:33:43.183Z,43.58
2022-09-26T23:38:45.530Z,40.72
2022-09-26T23:43:47.402Z,37.92
2022-09-26T23:48:49.386Z,36.80
2022-09-26T23:53:51.278Z,39.90
2022-09-26T23:58:56.433Z,39.42
